sensor_id;sensor_type;location;lat;lon;timestamp;P1;durP1;ratioP1;P2;durP2;ratioP2
82560;SDS011;72228;51.208;10.468;2024-01-15T00:00:44;13.75;;;5.28;;
82560;SDS011;72228;51.208;10.468;2024-01-15T00:03:10;11.55;;;4.97;;
82560;SDS011;72228;51.208;10.468;2024-01-15T00:05:36;11.82;;;5.63;;
82560;SDS011;72228;51.208;10.468;2024-01-15T00:08:02;12.40;;;5.55;;
82560;SDS011;72228;51.208;10.468;2024-01-15T00:10:27;11.50;;;3.90;;
82560;SDS011;72228;51.208;10.468;2024-01-15T00:12:53;11.50;;;5.28;;
82560;SDS011;72228;51.208;10.468;2024-01-15T00:15:19;10.82;;;5.07;;
82560;SDS011;72228;51.208;10.468;2024-01-15T00:17:45;13.18;;;4.82;;
82560;SDS011;72228;51.208;10.468;2024-01-15T00:20:11;7.93;;;4.47;;
82560;SDS011;72228;51.208;10.468;2024-01-15T00:22:37;10.30;;;5.85;;
82560;SDS011;72228;51.208;10.468;2024-01-15T00:25:03;13.43;;;4.85;;
82560;SDS011;72228;51.208;10.468;2024-01-15T00:27:29;11.23;;;4.28;;
82560;SDS011;72228;51.208;10.468;2024-01-15T00:29:55;14.18;;;5.50;;
82560;SDS011;72228;51.208;10.468;2024-01-15T00:32:21;10.02;;;5.05;;
82560;SDS011;72228;51.208;10.468;2024-01-15T00:34:47;7.63;;;3.17;;
82560;SDS011;72228;51.208;10.468;2024-01-15T00:37:12;13.68;;;7.00;;
82560;SDS011;72228;51.208;10.468;2024-01-15T00:39:38;11.55;;;4.28;;
82560;SDS011;72228;51.208;10.468;2024-01-15T00:42:04;13.60;;;4.63;;
82560;SDS011;72228;51.208;10.468;2024-01-15T00:44:30;9.48;;;4.57;;
82560;SDS011;72228;51.208;10.468;2024-01-15T00:46:56;5.72;;;3.58;;
82560;SDS011;72228;51.208;10.468;2024-01-15T00:49:22;9.27;;;5.00;;
82560;SDS011;72228;51.208;10.468;2024-01-15T00:51:48;7.63;;;4.22;;
82560;SDS011;72228;51.208;10.468;2024-01-15T00:54:14;8.77;;;4.22;;
82560;SDS011;72228;51.208;10.468;2024-01-15T00:56:39;15.30;;;6.63;;
82560;SDS011;72228;51.208;10.468;2024-01-15T00:59:07;10.23;;;4.65;;
82560;SDS011;72228;51.208;10.468;2024-01-15T01:01:36;17.17;;;7.28;;
82560;SDS011;72228;51.208;10.468;2024-01-15T01:04:03;7.07;;;4.35;;
82560;SDS011;72228;51.208;10.468;2024-01-15T01:06:29;14.30;;;4.63;;
82560;SDS011;72228;51.208;10.468;2024-01-15T01:08:55;8.85;;;4.45;;
82560;SDS011;72228;51.208;10.468;2024-01-15T01:11:21;7.60;;;3.63;;
82560;SDS011;72228;51.208;10.468;2024-01-15T01:13:46;6.68;;;4.10;;
82560;SDS011;72228;51.208;10.468;2024-01-15T01:16:12;10.27;;;4.43;;
82560;SDS011;72228;51.208;10.468;2024-01-15T01:18:56;11.40;;;4.85;;
82560;SDS011;72228;51.208;10.468;2024-01-15T01:21:22;11.52;;;5.47;;
82560;SDS011;72228;51.208;10.468;2024-01-15T01:23:48;10.63;;;4.47;;
82560;SDS011;72228;51.208;10.468;2024-01-15T01:26:17;9.63;;;4.88;;
82560;SDS011;72228;51.208;10.468;2024-01-15T01:28:43;6.93;;;4.57;;
82560;SDS011;72228;51.208;10.468;2024-01-15T01:31:09;12.35;;;4.32;;
82560;SDS011;72228;51.208;10.468;2024-01-15T01:33:35;10.07;;;4.75;;
82560;SDS011;72228;51.208;10.468;2024-01-15T01:36:00;16.75;;;5.07;;
82560;SDS011;72228;51.208;10.468;2024-01-15T01:38:26;8.38;;;4.82;;
82560;SDS011;72228;51.208;10.468;2024-01-15T01:40:52;12.23;;;5.75;;
82560;SDS011;72228;51.208;10.468;2024-01-15T01:43:18;14.13;;;6.70;;
82560;SDS011;72228;51.208;10.468;2024-01-15T01:45:44;13.23;;;3.83;;
82560;SDS011;72228;51.208;10.468;2024-01-15T01:48:09;8.48;;;4.65;;
82560;SDS011;72228;51.208;10.468;2024-01-15T01:50:35;6.82;;;3.50;;
82560;SDS011;72228;51.208;10.468;2024-01-15T01:53:01;12.82;;;4.82;;
82560;SDS011;72228;51.208;10.468;2024-01-15T01:55:29;11.52;;;4.68;;
82560;SDS011;72228;51.208;10.468;2024-01-15T01:57:56;6.93;;;3.85;;
82560;SDS011;72228;51.208;10.468;2024-01-15T02:00:22;17.05;;;4.88;;
82560;SDS011;72228;51.208;10.468;2024-01-15T02:02:49;8.40;;;4.22;;
82560;SDS011;72228;51.208;10.468;2024-01-15T02:05:15;4.97;;;3.17;;
82560;SDS011;72228;51.208;10.468;2024-01-15T02:07:44;6.35;;;3.63;;
82560;SDS011;72228;51.208;10.468;2024-01-15T02:10:10;11.10;;;5.00;;
82560;SDS011;72228;51.208;10.468;2024-01-15T02:12:36;15.75;;;5.63;;
82560;SDS011;72228;51.208;10.468;2024-01-15T02:15:02;5.43;;;3.50;;
82560;SDS011;72228;51.208;10.468;2024-01-15T02:17:28;6.32;;;4.32;;
82560;SDS011;72228;51.208;10.468;2024-01-15T02:19:54;8.90;;;4.65;;
82560;SDS011;72228;51.208;10.468;2024-01-15T02:22:20;13.00;;;4.63;;
82560;SDS011;72228;51.208;10.468;2024-01-15T02:24:46;7.60;;;3.05;;
82560;SDS011;72228;51.208;10.468;2024-01-15T02:27:12;8.15;;;4.53;;
82560;SDS011;72228;51.208;10.468;2024-01-15T02:29:38;7.20;;;3.50;;
82560;SDS011;72228;51.208;10.468;2024-01-15T02:32:04;9.25;;;4.95;;
82560;SDS011;72228;51.208;10.468;2024-01-15T02:34:34;5.03;;;2.45;;
82560;SDS011;72228;51.208;10.468;2024-01-15T02:37:00;9.88;;;4.25;;
82560;SDS011;72228;51.208;10.468;2024-01-15T02:39:26;8.23;;;4.68;;
82560;SDS011;72228;51.208;10.468;2024-01-15T02:41:52;7.88;;;4.68;;
82560;SDS011;72228;51.208;10.468;2024-01-15T02:44:17;8.45;;;4.53;;
82560;SDS011;72228;51.208;10.468;2024-01-15T02:46:43;10.88;;;6.15;;
82560;SDS011;72228;51.208;10.468;2024-01-15T02:49:09;5.72;;;2.88;;
82560;SDS011;72228;51.208;10.468;2024-01-15T02:51:35;7.53;;;3.78;;
82560;SDS011;72228;51.208;10.468;2024-01-15T02:54:01;9.48;;;4.85;;
82560;SDS011;72228;51.208;10.468;2024-01-15T02:56:27;7.38;;;3.75;;
82560;SDS011;72228;51.208;10.468;2024-01-15T02:58:52;7.60;;;3.63;;
82560;SDS011;72228;51.208;10.468;2024-01-15T03:01:19;5.85;;;3.90;;
82560;SDS011;72228;51.208;10.468;2024-01-15T03:03:45;8.15;;;3.15;;
82560;SDS011;72228;51.208;10.468;2024-01-15T03:06:11;6.60;;;3.53;;
82560;SDS011;72228;51.208;10.468;2024-01-15T03:08:37;10.02;;;4.07;;
82560;SDS011;72228;51.208;10.468;2024-01-15T03:11:03;8.13;;;3.80;;
82560;SDS011;72228;51.208;10.468;2024-01-15T03:13:29;7.32;;;4.15;;
82560;SDS011;72228;51.208;10.468;2024-01-15T03:15:54;8.18;;;4.22;;
82560;SDS011;72228;51.208;10.468;2024-01-15T03:18:20;9.60;;;3.38;;
82560;SDS011;72228;51.208;10.468;2024-01-15T03:20:46;7.32;;;3.25;;
82560;SDS011;72228;51.208;10.468;2024-01-15T03:23:12;5.75;;;3.63;;
82560;SDS011;72228;51.208;10.468;2024-01-15T03:25:38;7.38;;;3.55;;
82560;SDS011;72228;51.208;10.468;2024-01-15T03:28:03;7.18;;;3.83;;
82560;SDS011;72228;51.208;10.468;2024-01-15T03:30:29;5.40;;;3.20;;
82560;SDS011;72228;51.208;10.468;2024-01-15T03:32:55;6.30;;;3.33;;
82560;SDS011;72228;51.208;10.468;2024-01-15T03:35:21;5.95;;;3.95;;
82560;SDS011;72228;51.208;10.468;2024-01-15T03:37:47;6.75;;;3.15;;
82560;SDS011;72228;51.208;10.468;2024-01-15T03:40:13;10.65;;;3.90;;
82560;SDS011;72228;51.208;10.468;2024-01-15T03:42:39;10.30;;;4.50;;
82560;SDS011;72228;51.208;10.468;2024-01-15T03:45:05;11.00;;;4.47;;
82560;SDS011;72228;51.208;10.468;2024-01-15T03:47:31;5.57;;;2.88;;
82560;SDS011;72228;51.208;10.468;2024-01-15T03:49:57;9.13;;;3.85;;
82560;SDS011;72228;51.208;10.468;2024-01-15T03:52:22;7.80;;;4.80;;
82560;SDS011;72228;51.208;10.468;2024-01-15T03:54:48;4.80;;;3.47;;
82560;SDS011;72228;51.208;10.468;2024-01-15T03:57:15;7.65;;;3.72;;
82560;SDS011;72228;51.208;10.468;2024-01-15T03:59:41;7.45;;;3.30;;
82560;SDS011;72228;51.208;10.468;2024-01-15T04:02:07;7.88;;;4.05;;
82560;SDS011;72228;51.208;10.468;2024-01-15T04:04:33;8.10;;;3.38;;
82560;SDS011;72228;51.208;10.468;2024-01-15T04:06:58;5.57;;;3.22;;
82560;SDS011;72228;51.208;10.468;2024-01-15T04:09:24;10.45;;;4.68;;
82560;SDS011;72228;51.208;10.468;2024-01-15T04:11:50;6.47;;;3.60;;
82560;SDS011;72228;51.208;10.468;2024-01-15T04:14:16;7.88;;;3.47;;
82560;SDS011;72228;51.208;10.468;2024-01-15T04:16:42;8.73;;;3.30;;
82560;SDS011;72228;51.208;10.468;2024-01-15T04:19:08;6.32;;;3.00;;
82560;SDS011;72228;51.208;10.468;2024-01-15T04:21:33;7.47;;;3.47;;
82560;SDS011;72228;51.208;10.468;2024-01-15T04:23:59;6.63;;;2.67;;
82560;SDS011;72228;51.208;10.468;2024-01-15T04:26:25;4.07;;;2.70;;
82560;SDS011;72228;51.208;10.468;2024-01-15T04:28:51;5.65;;;3.22;;
82560;SDS011;72228;51.208;10.468;2024-01-15T04:31:21;3.90;;;2.40;;
82560;SDS011;72228;51.208;10.468;2024-01-15T04:33:48;4.55;;;2.53;;
82560;SDS011;72228;51.208;10.468;2024-01-15T04:36:14;3.47;;;2.60;;
82560;SDS011;72228;51.208;10.468;2024-01-15T04:38:39;4.35;;;2.90;;
82560;SDS011;72228;51.208;10.468;2024-01-15T04:41:05;7.78;;;2.83;;
82560;SDS011;72228;51.208;10.468;2024-01-15T04:43:31;7.00;;;2.25;;
82560;SDS011;72228;51.208;10.468;2024-01-15T04:45:57;4.15;;;3.30;;
82560;SDS011;72228;51.208;10.468;2024-01-15T04:48:23;5.85;;;3.35;;
82560;SDS011;72228;51.208;10.468;2024-01-15T04:50:49;9.88;;;4.18;;
82560;SDS011;72228;51.208;10.468;2024-01-15T04:53:15;5.05;;;2.72;;
82560;SDS011;72228;51.208;10.468;2024-01-15T04:55:41;10.20;;;2.05;;
82560;SDS011;72228;51.208;10.468;2024-01-15T04:58:06;6.22;;;2.72;;
82560;SDS011;72228;51.208;10.468;2024-01-15T05:00:32;6.55;;;3.67;;
82560;SDS011;72228;51.208;10.468;2024-01-15T05:02:58;6.00;;;2.95;;
82560;SDS011;72228;51.208;10.468;2024-01-15T05:05:24;6.07;;;3.17;;
82560;SDS011;72228;51.208;10.468;2024-01-15T05:07:49;7.05;;;2.92;;
82560;SDS011;72228;51.208;10.468;2024-01-15T05:10:15;29.70;;;4.75;;
82560;SDS011;72228;51.208;10.468;2024-01-15T05:12:41;4.47;;;3.22;;
82560;SDS011;72228;51.208;10.468;2024-01-15T05:15:07;6.70;;;2.70;;
82560;SDS011;72228;51.208;10.468;2024-01-15T05:17:33;4.82;;;2.35;;
82560;SDS011;72228;51.208;10.468;2024-01-15T05:19:58;5.45;;;2.60;;
82560;SDS011;72228;51.208;10.468;2024-01-15T05:22:24;4.65;;;2.80;;
82560;SDS011;72228;51.208;10.468;2024-01-15T05:24:50;5.38;;;2.33;;
82560;SDS011;72228;51.208;10.468;2024-01-15T05:27:16;5.03;;;3.10;;
82560;SDS011;72228;51.208;10.468;2024-01-15T05:29:42;4.72;;;3.00;;
82560;SDS011;72228;51.208;10.468;2024-01-15T05:32:08;3.08;;;2.38;;
82560;SDS011;72228;51.208;10.468;2024-01-15T05:34:33;6.97;;;3.72;;
82560;SDS011;72228;51.208;10.468;2024-01-15T05:36:59;7.40;;;3.58;;
82560;SDS011;72228;51.208;10.468;2024-01-15T05:39:25;9.20;;;2.83;;
82560;SDS011;72228;51.208;10.468;2024-01-15T05:41:51;4.88;;;2.95;;
82560;SDS011;72228;51.208;10.468;2024-01-15T05:44:17;3.78;;;2.42;;
82560;SDS011;72228;51.208;10.468;2024-01-15T05:46:43;6.38;;;3.30;;
82560;SDS011;72228;51.208;10.468;2024-01-15T05:49:09;3.97;;;2.00;;
82560;SDS011;72228;51.208;10.468;2024-01-15T05:51:34;4.70;;;2.63;;
82560;SDS011;72228;51.208;10.468;2024-01-15T05:54:00;4.63;;;2.80;;
82560;SDS011;72228;51.208;10.468;2024-01-15T05:56:26;4.75;;;3.40;;
82560;SDS011;72228;51.208;10.468;2024-01-15T05:58:52;6.18;;;3.38;;
82560;SDS011;72228;51.208;10.468;2024-01-15T06:01:17;5.75;;;2.97;;
82560;SDS011;72228;51.208;10.468;2024-01-15T06:03:43;7.95;;;3.88;;
82560;SDS011;72228;51.208;10.468;2024-01-15T06:06:09;5.03;;;2.70;;
82560;SDS011;72228;51.208;10.468;2024-01-15T06:08:35;7.95;;;3.25;;
82560;SDS011;72228;51.208;10.468;2024-01-15T06:11:01;5.70;;;2.67;;
82560;SDS011;72228;51.208;10.468;2024-01-15T06:13:27;5.20;;;2.83;;
82560;SDS011;72228;51.208;10.468;2024-01-15T06:15:52;4.97;;;3.00;;
82560;SDS011;72228;51.208;10.468;2024-01-15T06:18:18;3.15;;;2.40;;
82560;SDS011;72228;51.208;10.468;2024-01-15T06:20:44;8.30;;;3.88;;
82560;SDS011;72228;51.208;10.468;2024-01-15T06:23:10;4.70;;;3.20;;
82560;SDS011;72228;51.208;10.468;2024-01-15T06:25:36;11.85;;;3.75;;
82560;SDS011;72228;51.208;10.468;2024-01-15T06:28:01;5.82;;;2.85;;
82560;SDS011;72228;51.208;10.468;2024-01-15T06:30:27;10.70;;;3.42;;
82560;SDS011;72228;51.208;10.468;2024-01-15T06:32:55;6.85;;;3.83;;
82560;SDS011;72228;51.208;10.468;2024-01-15T06:35:21;9.23;;;3.97;;
82560;SDS011;72228;51.208;10.468;2024-01-15T06:37:47;6.18;;;3.03;;
82560;SDS011;72228;51.208;10.468;2024-01-15T06:40:13;7.57;;;3.58;;
82560;SDS011;72228;51.208;10.468;2024-01-15T06:42:39;6.30;;;3.35;;
82560;SDS011;72228;51.208;10.468;2024-01-15T06:45:05;6.60;;;3.25;;
82560;SDS011;72228;51.208;10.468;2024-01-15T06:47:31;4.90;;;3.17;;
82560;SDS011;72228;51.208;10.468;2024-01-15T06:49:57;12.55;;;5.13;;
82560;SDS011;72228;51.208;10.468;2024-01-15T06:52:24;9.27;;;3.33;;
82560;SDS011;72228;51.208;10.468;2024-01-15T06:54:49;8.82;;;3.40;;
82560;SDS011;72228;51.208;10.468;2024-01-15T06:57:15;4.70;;;2.47;;
82560;SDS011;72228;51.208;10.468;2024-01-15T06:59:41;7.05;;;3.15;;
82560;SDS011;72228;51.208;10.468;2024-01-15T07:02:25;9.40;;;3.75;;
82560;SDS011;72228;51.208;10.468;2024-01-15T07:04:52;5.32;;;3.45;;
82560;SDS011;72228;51.208;10.468;2024-01-15T07:07:18;7.35;;;2.78;;
82560;SDS011;72228;51.208;10.468;2024-01-15T07:09:44;6.55;;;3.28;;
82560;SDS011;72228;51.208;10.468;2024-01-15T07:12:10;9.55;;;3.90;;
82560;SDS011;72228;51.208;10.468;2024-01-15T07:14:36;4.55;;;2.95;;
82560;SDS011;72228;51.208;10.468;2024-01-15T07:17:02;10.95;;;4.10;;
82560;SDS011;72228;51.208;10.468;2024-01-15T07:19:28;9.88;;;4.63;;
82560;SDS011;72228;51.208;10.468;2024-01-15T07:21:54;10.48;;;3.92;;
82560;SDS011;72228;51.208;10.468;2024-01-15T07:24:19;7.93;;;5.05;;
82560;SDS011;72228;51.208;10.468;2024-01-15T07:26:45;13.02;;;5.30;;
82560;SDS011;72228;51.208;10.468;2024-01-15T07:29:11;8.57;;;6.07;;
82560;SDS011;72228;51.208;10.468;2024-01-15T07:31:37;9.48;;;5.45;;
82560;SDS011;72228;51.208;10.468;2024-01-15T07:34:03;8.05;;;4.70;;
82560;SDS011;72228;51.208;10.468;2024-01-15T07:36:29;6.75;;;3.35;;
82560;SDS011;72228;51.208;10.468;2024-01-15T07:38:55;7.38;;;3.58;;
82560;SDS011;72228;51.208;10.468;2024-01-15T07:41:21;5.53;;;3.35;;
82560;SDS011;72228;51.208;10.468;2024-01-15T07:43:47;7.47;;;3.55;;
82560;SDS011;72228;51.208;10.468;2024-01-15T07:46:13;6.63;;;3.75;;
82560;SDS011;72228;51.208;10.468;2024-01-15T07:48:38;13.05;;;7.05;;
82560;SDS011;72228;51.208;10.468;2024-01-15T07:51:04;13.77;;;3.63;;
82560;SDS011;72228;51.208;10.468;2024-01-15T07:53:30;13.70;;;6.18;;
82560;SDS011;72228;51.208;10.468;2024-01-15T07:55:56;9.50;;;3.42;;
82560;SDS011;72228;51.208;10.468;2024-01-15T07:58:22;8.63;;;4.47;;
82560;SDS011;72228;51.208;10.468;2024-01-15T08:00:48;6.85;;;4.32;;
82560;SDS011;72228;51.208;10.468;2024-01-15T08:03:14;5.88;;;3.53;;
82560;SDS011;72228;51.208;10.468;2024-01-15T08:05:40;9.27;;;3.78;;
82560;SDS011;72228;51.208;10.468;2024-01-15T08:08:06;10.25;;;4.97;;
82560;SDS011;72228;51.208;10.468;2024-01-15T08:10:32;8.35;;;3.78;;
82560;SDS011;72228;51.208;10.468;2024-01-15T08:12:58;10.82;;;4.20;;
82560;SDS011;72228;51.208;10.468;2024-01-15T08:15:24;12.18;;;3.88;;
82560;SDS011;72228;51.208;10.468;2024-01-15T08:17:49;7.03;;;3.28;;
82560;SDS011;72228;51.208;10.468;2024-01-15T08:20:16;7.68;;;3.40;;
82560;SDS011;72228;51.208;10.468;2024-01-15T08:22:42;12.00;;;5.05;;
82560;SDS011;72228;51.208;10.468;2024-01-15T08:25:08;6.15;;;3.20;;
82560;SDS011;72228;51.208;10.468;2024-01-15T08:27:34;7.78;;;3.58;;
82560;SDS011;72228;51.208;10.468;2024-01-15T08:30:00;9.25;;;4.60;;
82560;SDS011;72228;51.208;10.468;2024-01-15T08:32:26;12.45;;;3.70;;
82560;SDS011;72228;51.208;10.468;2024-01-15T08:34:52;7.20;;;3.30;;
82560;SDS011;72228;51.208;10.468;2024-01-15T08:37:18;7.03;;;3.47;;
82560;SDS011;72228;51.208;10.468;2024-01-15T08:39:44;11.02;;;3.63;;
82560;SDS011;72228;51.208;10.468;2024-01-15T08:42:10;8.50;;;3.72;;
82560;SDS011;72228;51.208;10.468;2024-01-15T08:44:36;7.75;;;3.35;;
82560;SDS011;72228;51.208;10.468;2024-01-15T08:47:04;9.25;;;4.20;;
82560;SDS011;72228;51.208;10.468;2024-01-15T08:49:30;10.35;;;3.50;;
82560;SDS011;72228;51.208;10.468;2024-01-15T08:51:56;7.43;;;3.63;;
82560;SDS011;72228;51.208;10.468;2024-01-15T08:54:22;6.22;;;4.20;;
82560;SDS011;72228;51.208;10.468;2024-01-15T08:56:48;6.95;;;3.20;;
82560;SDS011;72228;51.208;10.468;2024-01-15T08:59:13;4.95;;;3.00;;
82560;SDS011;72228;51.208;10.468;2024-01-15T09:01:39;6.05;;;3.38;;
82560;SDS011;72228;51.208;10.468;2024-01-15T09:04:05;5.88;;;4.18;;
82560;SDS011;72228;51.208;10.468;2024-01-15T09:06:31;11.35;;;3.63;;
82560;SDS011;72228;51.208;10.468;2024-01-15T09:08:57;7.63;;;3.70;;
82560;SDS011;72228;51.208;10.468;2024-01-15T09:11:23;11.40;;;3.83;;
82560;SDS011;72228;51.208;10.468;2024-01-15T09:13:48;7.18;;;3.13;;
82560;SDS011;72228;51.208;10.468;2024-01-15T09:16:14;5.63;;;3.28;;
82560;SDS011;72228;51.208;10.468;2024-01-15T09:18:40;7.05;;;3.83;;
82560;SDS011;72228;51.208;10.468;2024-01-15T09:21:06;7.15;;;3.70;;
82560;SDS011;72228;51.208;10.468;2024-01-15T09:23:32;6.72;;;3.47;;
82560;SDS011;72228;51.208;10.468;2024-01-15T09:26:16;6.50;;;3.22;;
82560;SDS011;72228;51.208;10.468;2024-01-15T09:28:42;7.53;;;3.22;;
82560;SDS011;72228;51.208;10.468;2024-01-15T09:31:08;6.82;;;4.13;;
82560;SDS011;72228;51.208;10.468;2024-01-15T09:33:34;8.18;;;4.13;;
82560;SDS011;72228;51.208;10.468;2024-01-15T09:36:03;7.90;;;3.42;;
82560;SDS011;72228;51.208;10.468;2024-01-15T09:38:30;8.95;;;4.88;;
82560;SDS011;72228;51.208;10.468;2024-01-15T09:40:57;9.15;;;3.33;;
82560;SDS011;72228;51.208;10.468;2024-01-15T09:43:23;5.70;;;2.67;;
82560;SDS011;72228;51.208;10.468;2024-01-15T09:45:49;6.85;;;3.72;;
82560;SDS011;72228;51.208;10.468;2024-01-15T09:48:16;8.10;;;4.20;;
82560;SDS011;72228;51.208;10.468;2024-01-15T09:50:42;9.27;;;3.92;;
82560;SDS011;72228;51.208;10.468;2024-01-15T09:53:08;6.03;;;2.60;;
82560;SDS011;72228;51.208;10.468;2024-01-15T09:55:36;11.80;;;5.90;;
82560;SDS011;72228;51.208;10.468;2024-01-15T09:58:03;8.18;;;3.20;;
82560;SDS011;72228;51.208;10.468;2024-01-15T10:00:29;4.28;;;3.33;;
82560;SDS011;72228;51.208;10.468;2024-01-15T10:02:58;8.75;;;3.10;;
82560;SDS011;72228;51.208;10.468;2024-01-15T10:07:53;6.50;;;3.38;;
82560;SDS011;72228;51.208;10.468;2024-01-15T10:10:20;6.55;;;3.75;;
82560;SDS011;72228;51.208;10.468;2024-01-15T10:12:47;5.13;;;3.30;;
82560;SDS011;72228;51.208;10.468;2024-01-15T10:15:14;3.95;;;2.60;;
82560;SDS011;72228;51.208;10.468;2024-01-15T10:17:40;13.65;;;4.00;;
82560;SDS011;72228;51.208;10.468;2024-01-15T10:20:07;6.97;;;3.58;;
82560;SDS011;72228;51.208;10.468;2024-01-15T10:22:35;5.15;;;3.45;;
82560;SDS011;72228;51.208;10.468;2024-01-15T10:25:03;7.50;;;4.20;;
82560;SDS011;72228;51.208;10.468;2024-01-15T10:27:30;7.40;;;3.25;;
82560;SDS011;72228;51.208;10.468;2024-01-15T10:29:59;8.05;;;2.88;;
82560;SDS011;72228;51.208;10.468;2024-01-15T10:32:26;8.30;;;4.05;;
82560;SDS011;72228;51.208;10.468;2024-01-15T10:34:52;9.50;;;3.55;;
82560;SDS011;72228;51.208;10.468;2024-01-15T10:37:20;7.45;;;3.40;;
82560;SDS011;72228;51.208;10.468;2024-01-15T10:39:46;10.35;;;3.25;;
82560;SDS011;72228;51.208;10.468;2024-01-15T10:42:12;7.45;;;3.40;;
82560;SDS011;72228;51.208;10.468;2024-01-15T10:44:38;4.93;;;2.70;;
82560;SDS011;72228;51.208;10.468;2024-01-15T10:47:04;4.15;;;3.17;;
82560;SDS011;72228;51.208;10.468;2024-01-15T10:49:30;6.40;;;3.95;;
82560;SDS011;72228;51.208;10.468;2024-01-15T10:51:56;9.30;;;4.43;;
82560;SDS011;72228;51.208;10.468;2024-01-15T10:54:22;11.73;;;4.10;;
82560;SDS011;72228;51.208;10.468;2024-01-15T10:56:50;7.00;;;4.32;;
82560;SDS011;72228;51.208;10.468;2024-01-15T10:59:16;5.47;;;3.42;;
82560;SDS011;72228;51.208;10.468;2024-01-15T11:01:50;8.10;;;4.45;;
82560;SDS011;72228;51.208;10.468;2024-01-15T11:04:21;6.20;;;2.78;;
82560;SDS011;72228;51.208;10.468;2024-01-15T11:06:52;4.38;;;3.00;;
82560;SDS011;72228;51.208;10.468;2024-01-15T11:09:19;6.80;;;3.08;;
82560;SDS011;72228;51.208;10.468;2024-01-15T11:11:45;13.18;;;3.88;;
82560;SDS011;72228;51.208;10.468;2024-01-15T11:14:33;5.65;;;3.20;;
82560;SDS011;72228;51.208;10.468;2024-01-15T11:17:00;6.05;;;3.72;;
82560;SDS011;72228;51.208;10.468;2024-01-15T11:19:34;6.90;;;3.30;;
82560;SDS011;72228;51.208;10.468;2024-01-15T11:22:08;8.80;;;3.50;;
82560;SDS011;72228;51.208;10.468;2024-01-15T11:24:35;7.82;;;4.22;;
82560;SDS011;72228;51.208;10.468;2024-01-15T11:27:02;7.60;;;3.78;;
82560;SDS011;72228;51.208;10.468;2024-01-15T11:31:57;9.25;;;3.30;;
82560;SDS011;72228;51.208;10.468;2024-01-15T11:37:16;4.93;;;3.33;;
82560;SDS011;72228;51.208;10.468;2024-01-15T11:39:42;7.28;;;3.70;;
82560;SDS011;72228;51.208;10.468;2024-01-15T11:42:09;4.63;;;2.38;;
82560;SDS011;72228;51.208;10.468;2024-01-15T11:44:39;11.30;;;3.45;;
82560;SDS011;72228;51.208;10.468;2024-01-15T11:47:09;4.60;;;2.88;;
82560;SDS011;72228;51.208;10.468;2024-01-15T11:52:04;8.65;;;3.25;;
82560;SDS011;72228;51.208;10.468;2024-01-15T11:54:33;3.95;;;2.38;;
82560;SDS011;72228;51.208;10.468;2024-01-15T11:57:04;9.07;;;3.58;;
82560;SDS011;72228;51.208;10.468;2024-01-15T11:59:35;10.05;;;4.35;;
82560;SDS011;72228;51.208;10.468;2024-01-15T12:02:02;5.50;;;3.08;;
82560;SDS011;72228;51.208;10.468;2024-01-15T12:04:28;8.30;;;3.88;;
82560;SDS011;72228;51.208;10.468;2024-01-15T12:06:54;7.97;;;3.85;;
82560;SDS011;72228;51.208;10.468;2024-01-15T12:09:20;7.50;;;3.38;;
82560;SDS011;72228;51.208;10.468;2024-01-15T12:11:49;9.10;;;3.95;;
82560;SDS011;72228;51.208;10.468;2024-01-15T12:14:20;14.43;;;7.20;;
82560;SDS011;72228;51.208;10.468;2024-01-15T12:16:47;15.13;;;6.10;;
82560;SDS011;72228;51.208;10.468;2024-01-15T12:19:14;33.78;;;13.05;;
82560;SDS011;72228;51.208;10.468;2024-01-15T12:21:40;47.80;;;17.13;;
82560;SDS011;72228;51.208;10.468;2024-01-15T12:24:09;129.73;;;40.67;;
82560;SDS011;72228;51.208;10.468;2024-01-15T12:26:35;39.05;;;14.85;;
82560;SDS011;72228;51.208;10.468;2024-01-15T12:29:01;39.30;;;13.93;;
82560;SDS011;72228;51.208;10.468;2024-01-15T12:31:29;16.65;;;5.75;;
82560;SDS011;72228;51.208;10.468;2024-01-15T12:33:55;39.60;;;16.02;;
82560;SDS011;72228;51.208;10.468;2024-01-15T12:36:22;42.67;;;19.77;;
82560;SDS011;72228;51.208;10.468;2024-01-15T12:38:47;22.80;;;9.25;;
82560;SDS011;72228;51.208;10.468;2024-01-15T12:41:14;7.22;;;4.32;;
82560;SDS011;72228;51.208;10.468;2024-01-15T12:43:40;14.65;;;7.85;;
82560;SDS011;72228;51.208;10.468;2024-01-15T12:46:07;8.55;;;5.95;;
82560;SDS011;72228;51.208;10.468;2024-01-15T12:48:32;13.90;;;7.90;;
82560;SDS011;72228;51.208;10.468;2024-01-15T12:50:59;15.57;;;7.00;;
82560;SDS011;72228;51.208;10.468;2024-01-15T12:53:26;9.65;;;4.90;;
82560;SDS011;72228;51.208;10.468;2024-01-15T12:55:52;10.70;;;5.47;;
82560;SDS011;72228;51.208;10.468;2024-01-15T12:58:18;9.52;;;5.15;;
82560;SDS011;72228;51.208;10.468;2024-01-15T13:00:44;13.18;;;7.53;;
82560;SDS011;72228;51.208;10.468;2024-01-15T13:03:10;10.27;;;4.43;;
82560;SDS011;72228;51.208;10.468;2024-01-15T13:05:36;9.80;;;5.72;;
82560;SDS011;72228;51.208;10.468;2024-01-15T13:08:02;9.85;;;5.63;;
82560;SDS011;72228;51.208;10.468;2024-01-15T13:10:29;9.68;;;3.90;;
82560;SDS011;72228;51.208;10.468;2024-01-15T13:12:55;6.50;;;3.70;;
82560;SDS011;72228;51.208;10.468;2024-01-15T13:15:21;7.15;;;3.80;;
82560;SDS011;72228;51.208;10.468;2024-01-15T13:17:47;2.50;;;1.75;;
82560;SDS011;72228;51.208;10.468;2024-01-15T13:20:13;5.10;;;2.45;;
82560;SDS011;72228;51.208;10.468;2024-01-15T13:22:39;4.50;;;2.55;;
82560;SDS011;72228;51.208;10.468;2024-01-15T13:25:05;3.58;;;2.30;;
82560;SDS011;72228;51.208;10.468;2024-01-15T13:27:33;3.35;;;2.22;;
82560;SDS011;72228;51.208;10.468;2024-01-15T13:30:01;3.83;;;2.15;;
82560;SDS011;72228;51.208;10.468;2024-01-15T13:32:29;5.32;;;2.90;;
82560;SDS011;72228;51.208;10.468;2024-01-15T13:34:55;8.13;;;3.33;;
82560;SDS011;72228;51.208;10.468;2024-01-15T13:37:22;4.53;;;3.00;;
82560;SDS011;72228;51.208;10.468;2024-01-15T13:39:50;5.15;;;3.05;;
82560;SDS011;72228;51.208;10.468;2024-01-15T13:42:17;6.10;;;3.92;;
82560;SDS011;72228;51.208;10.468;2024-01-15T13:44:43;7.82;;;3.60;;
82560;SDS011;72228;51.208;10.468;2024-01-15T13:47:09;3.88;;;2.85;;
82560;SDS011;72228;51.208;10.468;2024-01-15T13:49:35;4.32;;;2.20;;
82560;SDS011;72228;51.208;10.468;2024-01-15T13:52:02;4.60;;;3.00;;
82560;SDS011;72228;51.208;10.468;2024-01-15T13:54:29;4.85;;;2.85;;
82560;SDS011;72228;51.208;10.468;2024-01-15T13:56:56;4.45;;;2.85;;
82560;SDS011;72228;51.208;10.468;2024-01-15T13:59:21;7.20;;;3.30;;
82560;SDS011;72228;51.208;10.468;2024-01-15T14:01:48;9.57;;;2.63;;
82560;SDS011;72228;51.208;10.468;2024-01-15T14:04:14;5.40;;;2.92;;
82560;SDS011;72228;51.208;10.468;2024-01-15T14:06:40;4.47;;;2.10;;
82560;SDS011;72228;51.208;10.468;2024-01-15T14:09:06;4.10;;;2.53;;
82560;SDS011;72228;51.208;10.468;2024-01-15T14:11:36;3.67;;;2.20;;
82560;SDS011;72228;51.208;10.468;2024-01-15T14:14:03;4.60;;;2.58;;
82560;SDS011;72228;51.208;10.468;2024-01-15T14:16:29;4.35;;;1.83;;
82560;SDS011;72228;51.208;10.468;2024-01-15T14:18:54;6.35;;;3.05;;
82560;SDS011;72228;51.208;10.468;2024-01-15T14:21:20;23.88;;;12.02;;
82560;SDS011;72228;51.208;10.468;2024-01-15T14:23:46;11.98;;;7.72;;
82560;SDS011;72228;51.208;10.468;2024-01-15T14:26:12;12.57;;;5.22;;
82560;SDS011;72228;51.208;10.468;2024-01-15T14:28:38;13.95;;;7.75;;
82560;SDS011;72228;51.208;10.468;2024-01-15T14:31:04;9.63;;;4.30;;
82560;SDS011;72228;51.208;10.468;2024-01-15T14:33:31;8.68;;;4.22;;
82560;SDS011;72228;51.208;10.468;2024-01-15T14:35:57;10.50;;;4.00;;